createdAt,value
2022-09-16T00:00:55.946Z,17.35
2022-09-16T00:03:23.850Z,17.30
2022-09-16T00:05:54.205Z,17.30
2022-09-16T00:08:23.175Z,17.39
2022-09-16T00:10:51.116Z,17.35
2022-09-16T00:13:19.766Z,17.26
2022-09-16T00:15:50.965Z,17.29
2022-09-16T00:18:20.303Z,17.43
2022-09-16T00:20:49.716Z,17.40
2022-09-16T00:23:19.762Z,17.32
2022-09-16T00:25:52.500Z,17.38
2022-09-16T00:28:21.690Z,17.33
2022-09-16T00:30:49.794Z,17.31
2022-09-16T00:33:18.082Z,17.33
2022-09-16T00:35:45.827Z,17.23
2022-09-16T00:38:13.592Z,17.20
2022-09-16T00:40:47.043Z,17.07
2022-09-16T00:43:15.624Z,17.06
2022-09-16T00:45:45.568Z,17.14
2022-09-16T00:48:17.988Z,17.21
2022-09-16T00:50:49.346Z,17.23
2022-09-16T00:53:21.108Z,17.27
2022-09-16T00:55:51.881Z,17.26
2022-09-16T00:58:24.084Z,17.29
2022-09-16T01:00:52.187Z,17.28
2022-09-16T01:03:20.914Z,17.27
2022-09-16T01:05:50.110Z,17.24
2022-09-16T01:08:18.118Z,17.13
2022-09-16T01:10:45.785Z,17.19
2022-09-16T01:13:17.074Z,17.19
2022-09-16T01:15:52.307Z,17.18
2022-09-16T01:18:27.640Z,17.09
2022-09-16T01:21:23.563Z,17.11
2022-09-16T01:24:15.345Z,17.11
2022-09-16T01:27:15.688Z,17.26
2022-09-16T01:30:18.881Z,17.23
2022-09-16T01:33:04.971Z,17.13
2022-09-16T01:35:50.539Z,16.97
2022-09-16T01:38:34.424Z,16.92
2022-09-16T01:41:10.305Z,16.98
2022-09-16T01:43:50.861Z,17.04
2022-09-16T01:46:25.787Z,17.00
2022-09-16T01:49:02.073Z,16.93
2022-09-16T01:51:34.542Z,16.98
2022-09-16T01:54:09.357Z,16.83
2022-09-16T01:56:43.913Z,16.78
2022-09-16T01:59:16.289Z,16.77
2022-09-16T02:01:50.707Z,16.71
2022-09-16T02:04:24.825Z,16.72
2022-09-16T02:06:55.135Z,16.77
2022-09-16T02:09:28.026Z,16.83
2022-09-16T02:12:05.414Z,16.77
2022-09-16T02:14:37.147Z,16.78
2022-09-16T02:17:09.289Z,16.74
2022-09-16T02:19:42.973Z,16.75
2022-09-16T02:22:17.036Z,16.72
2022-09-16T02:24:47.740Z,16.84
2022-09-16T02:27:18.926Z,16.85
2022-09-16T02:29:51.575Z,16.88
2022-09-16T02:32:21.586Z,16.91
2022-09-16T02:34:54.439Z,16.86
2022-09-16T02:37:28.180Z,16.78
2022-09-16T02:40:02.198Z,16.74
2022-09-16T02:42:30.554Z,16.69
2022-09-16T02:44:59.312Z,16.75
2022-09-16T02:47:33.022Z,16.70
2022-09-16T02:50:09.027Z,16.56
2022-09-16T02:52:44.668Z,16.52
2022-09-16T02:55:21.679Z,16.42
2022-09-16T02:57:50.576Z,16.38
2022-09-16T03:00:18.342Z,16.40
2022-09-16T03:02:46.154Z,16.44
2022-09-16T03:08:06.597Z,16.49
2022-09-16T03:10:42.631Z,16.55
2022-09-16T03:13:14.390Z,16.57
2022-09-16T03:15:51.351Z,16.57
2022-09-16T03:18:32.095Z,16.49
2022-09-16T03:21:05.355Z,16.42
2022-09-16T03:23:44.035Z,16.33
2022-09-16T03:32:40.113Z,16.29
2022-09-16T03:35:11.505Z,16.35
2022-09-16T03:37:40.189Z,16.37
2022-09-16T03:40:11.021Z,16.43
2022-09-16T03:42:39.130Z,16.49
2022-09-16T03:45:07.875Z,16.51
2022-09-16T03:47:37.008Z,16.53
2022-09-16T03:50:05.170Z,16.40
2022-09-16T03:52:32.756Z,16.39
2022-09-16T03:55:00.365Z,16.32
2022-09-16T03:57:30.278Z,16.39
2022-09-16T03:59:57.893Z,16.38
2022-09-16T04:02:25.715Z,16.48
2022-09-16T04:04:54.745Z,16.46
2022-09-16T04:07:22.322Z,16.32
2022-09-16T04:09:49.992Z,16.32
2022-09-16T04:12:17.652Z,16.20
2022-09-16T04:14:45.225Z,16.16
2022-09-16T04:17:12.950Z,16.11
2022-09-16T04:19:40.561Z,16.14
2022-09-16T04:22:09.595Z,16.21
2022-09-16T04:24:37.295Z,16.16
2022-09-16T04:27:05.263Z,16.09
2022-09-16T04:29:33.242Z,15.91
2022-09-16T04:32:00.853Z,15.81
2022-09-16T04:34:28.410Z,15.86
2022-09-16T04:36:55.959Z,15.92
2022-09-16T04:39:25.355Z,15.94
2022-09-16T04:41:52.963Z,15.95
2022-09-16T04:44:20.551Z,16.04
2022-09-16T04:46:48.267Z,16.06
2022-09-16T04:49:15.834Z,15.98
2022-09-16T04:51:43.635Z,15.91
2022-09-16T04:54:11.757Z,15.88
2022-09-16T04:56:40.658Z,15.81
2022-09-16T04:59:08.320Z,15.87
2022-09-16T05:01:38.488Z,15.85
2022-09-16T05:04:07.977Z,15.84
2022-09-16T05:06:37.263Z,15.87
2022-09-16T05:09:05.033Z,15.97
2022-09-16T05:11:34.437Z,15.95
2022-09-16T05:14:05.370Z,15.96
2022-09-16T05:16:33.832Z,15.92
2022-09-16T05:19:04.652Z,15.98
2022-09-16T05:21:34.717Z,15.89
2022-09-16T05:24:03.716Z,15.94
2022-09-16T05:26:35.196Z,16.04
2022-09-16T05:29:06.734Z,16.08
2022-09-16T05:31:36.233Z,16.18
2022-09-16T05:34:05.974Z,16.24
2022-09-16T05:36:35.972Z,16.27
2022-09-16T05:41:55.180Z,16.30
2022-09-16T05:44:24.453Z,16.28
2022-09-16T05:46:52.102Z,16.38
2022-09-16T05:49:21.158Z,16.43
2022-09-16T05:51:49.791Z,16.33
2022-09-16T05:54:18.526Z,16.44
2022-09-16T05:56:46.882Z,16.32
2022-09-16T05:59:16.020Z,16.40
2022-09-16T06:01:45.714Z,16.44
2022-09-16T06:04:14.846Z,16.54
2022-09-16T06:06:44.069Z,16.49
2022-09-16T06:09:15.023Z,16.65
2022-09-16T06:11:44.668Z,16.63
2022-09-16T06:14:13.996Z,16.52
2022-09-16T06:16:42.367Z,16.32
2022-09-16T06:19:14.055Z,16.38
2022-09-16T06:21:43.676Z,16.46
2022-09-16T06:24:12.289Z,16.50
2022-09-16T06:26:42.166Z,16.49
2022-09-16T06:29:11.117Z,16.58
2022-09-16T06:31:39.335Z,16.54
2022-09-16T06:34:08.077Z,16.53
2022-09-16T06:36:42.731Z,16.49
2022-09-16T06:39:13.109Z,16.57
2022-09-16T06:41:40.735Z,16.40
2022-09-16T06:44:08.597Z,16.36
2022-09-16T06:46:36.366Z,16.22
2022-09-16T06:49:06.108Z,16.37
2022-09-16T06:51:34.901Z,16.63
2022-09-16T06:54:05.617Z,16.67
2022-09-16T06:56:34.040Z,16.60
2022-09-16T06:59:01.667Z,16.63
2022-09-16T07:01:31.014Z,16.70
2022-09-16T07:03:59.912Z,16.74
2022-09-16T07:06:57.482Z,16.64
2022-09-16T07:09:19.343Z,16.73
2022-09-16T07:11:46.931Z,16.46
2022-09-16T07:14:14.999Z,16.51
2022-09-16T07:16:42.691Z,16.55
2022-09-16T07:19:10.841Z,16.48
2022-09-16T07:21:38.438Z,16.58
2022-09-16T07:24:06.391Z,16.62
2022-09-16T07:26:37.691Z,16.74
2022-09-16T07:29:07.811Z,16.73
2022-09-16T07:31:36.979Z,16.65
2022-09-16T07:34:06.369Z,16.71
2022-09-16T07:36:36.884Z,16.67
2022-09-16T07:39:05.146Z,16.74
2022-09-16T07:41:36.286Z,16.72
2022-09-16T07:44:05.384Z,16.72
2022-09-16T07:46:35.699Z,16.82
2022-09-16T07:49:05.368Z,16.81
2022-09-16T07:51:33.421Z,16.78
2022-09-16T07:54:03.888Z,16.73
2022-09-16T07:56:34.611Z,16.59
2022-09-16T07:59:06.599Z,16.58
2022-09-16T08:01:34.784Z,16.80
2022-09-16T08:04:04.451Z,16.88
2022-09-16T08:06:33.896Z,16.87
2022-09-16T08:09:10.532Z,16.91
2022-09-16T08:11:50.116Z,16.97
2022-09-16T08:14:19.057Z,17.04
2022-09-16T08:16:46.767Z,17.01
2022-09-16T08:19:14.617Z,16.92
2022-09-16T08:21:42.231Z,16.98
2022-09-16T08:24:11.033Z,16.90
2022-09-16T08:26:38.860Z,16.92
2022-09-16T08:29:09.662Z,17.10
2022-09-16T08:31:39.533Z,17.08
2022-09-16T08:34:07.411Z,17.05
2022-09-16T08:36:35.130Z,17.01
2022-09-16T08:39:03.174Z,17.01
2022-09-16T08:41:43.024Z,17.07
2022-09-16T08:44:20.966Z,17.09
2022-09-16T08:46:53.416Z,16.97
2022-09-16T08:49:30.536Z,16.96
2022-09-16T08:52:00.543Z,17.07
2022-09-16T08:54:32.605Z,17.14
2022-09-16T08:57:03.728Z,17.26
2022-09-16T08:59:36.850Z,17.24
2022-09-16T09:02:29.866Z,17.30
2022-09-16T09:04:58.228Z,17.04
2022-09-16T09:07:35.942Z,17.17
2022-09-16T09:10:12.010Z,17.13
2022-09-16T09:12:44.031Z,17.21
2022-09-16T09:15:35.381Z,17.15
2022-09-16T09:18:17.259Z,17.07
2022-09-16T09:20:55.284Z,17.07
2022-09-16T09:23:39.306Z,16.97
2022-09-16T09:26:14.743Z,16.92
2022-09-16T09:29:09.179Z,16.87
2022-09-16T09:34:34.954Z,16.81
2022-09-16T09:37:20.399Z,16.91
2022-09-16T09:40:01.695Z,16.85
2022-09-16T09:42:32.784Z,16.76
2022-09-16T09:45:04.772Z,16.72
2022-09-16T09:47:38.074Z,16.70
2022-09-16T09:50:18.550Z,16.75
2022-09-16T09:52:53.607Z,16.81
2022-09-16T09:55:24.739Z,16.82
2022-09-16T09:58:07.486Z,16.85
2022-09-16T10:00:35.206Z,16.72
2022-09-16T10:03:07.826Z,16.65
2022-09-16T10:05:36.808Z,16.74
2022-09-16T10:08:16.429Z,16.63
2022-09-16T10:10:50.279Z,16.87
2022-09-16T10:13:19.477Z,16.92
2022-09-16T10:15:51.954Z,16.97
2022-09-16T10:18:27.157Z,16.97
2022-09-16T10:21:08.127Z,16.89
2022-09-16T10:23:39.262Z,16.87
2022-09-16T10:26:20.337Z,16.75
2022-09-16T10:28:56.332Z,16.61
2022-09-16T10:31:25.254Z,16.63
2022-09-16T10:33:53.941Z,16.67
2022-09-16T10:36:26.263Z,16.78
2022-09-16T10:39:00.909Z,16.73
2022-09-16T10:41:36.100Z,16.90
2022-09-16T10:44:08.325Z,16.93
2022-09-16T10:46:36.174Z,16.84
2022-09-16T10:49:13.228Z,16.74
2022-09-16T10:51:42.284Z,16.62
2022-09-16T10:54:25.609Z,16.57
2022-09-16T10:56:53.399Z,16.57
2022-09-16T10:59:21.396Z,16.44
2022-09-16T11:01:59.379Z,16.42
2022-09-16T11:04:46.470Z,16.23
2022-09-16T11:07:28.359Z,16.08
2022-09-16T11:10:05.991Z,16.01
2022-09-16T11:12:53.331Z,15.92
2022-09-16T11:15:33.170Z,16.10
2022-09-16T11:18:19.408Z,15.82
2022-09-16T11:21:00.081Z,15.76
2022-09-16T11:23:50.786Z,15.72
2022-09-16T11:26:25.784Z,15.75
2022-09-16T11:29:27.239Z,15.75
2022-09-16T11:32:04.002Z,15.78
2022-09-16T11:34:44.607Z,15.71
2022-09-16T11:37:21.357Z,15.65
2022-09-16T11:40:02.896Z,15.64
2022-09-16T11:42:36.179Z,15.64
2022-09-16T11:45:17.837Z,15.80
2022-09-16T11:47:59.139Z,15.83
2022-09-16T11:50:45.594Z,15.80
2022-09-16T11:53:46.621Z,15.64
2022-09-16T11:56:20.529Z,15.73
2022-09-16T11:58:52.300Z,15.52
2022-09-16T12:01:30.202Z,15.49
2022-09-16T12:04:07.866Z,15.41
2022-09-16T12:06:41.991Z,15.23
2022-09-16T12:09:15.758Z,15.36
2022-09-16T12:11:49.319Z,15.37
2022-09-16T12:14:22.527Z,15.54
2022-09-16T12:16:55.020Z,15.75
2022-09-16T12:19:28.424Z,15.62
2022-09-16T12:22:03.760Z,15.53
2022-09-16T12:24:39.517Z,15.86
2022-09-16T12:27:31.644Z,15.87
2022-09-16T12:30:03.152Z,15.72
2022-09-16T12:32:38.687Z,15.60
2022-09-16T12:35:14.454Z,15.41
2022-09-16T12:37:48.358Z,15.39
2022-09-16T12:40:19.668Z,15.48
2022-09-16T12:43:23.624Z,15.45
2022-09-16T12:46:16.057Z,15.70
2022-09-16T12:49:03.262Z,15.74
2022-09-16T12:51:50.228Z,15.76
2022-09-16T12:55:04.390Z,15.79
2022-09-16T12:57:45.684Z,15.58
2022-09-16T13:00:18.985Z,15.65
2022-09-16T13:02:51.911Z,15.48
2022-09-16T13:05:26.248Z,15.45
2022-09-16T13:07:58.888Z,15.41
2022-09-16T13:10:53.923Z,15.38
2022-09-16T13:13:31.780Z,15.37
2022-09-16T13:16:01.631Z,15.53
2022-09-16T13:18:43.053Z,15.43
2022-09-16T13:21:23.253Z,15.36
2022-09-16T13:24:01.804Z,15.28
2022-09-16T13:26:40.880Z,15.24
2022-09-16T13:29:39.814Z,15.14
2022-09-16T13:32:25.943Z,15.65
2022-09-16T13:35:04.650Z,15.64
2022-09-16T13:37:32.350Z,15.66
2022-09-16T13:40:10.647Z,15.50
2022-09-16T13:42:38.270Z,15.49
2022-09-16T13:45:33.762Z,15.48
2022-09-16T13:48:07.437Z,15.87
2022-09-16T13:50:37.265Z,15.90
2022-09-16T13:53:11.142Z,15.56
2022-09-16T13:55:41.424Z,15.56
2022-09-16T13:58:21.771Z,15.56
2022-09-16T14:01:05.724Z,15.41
2022-09-16T14:03:56.300Z,15.34
2022-09-16T14:06:45.444Z,15.33
2022-09-16T14:09:27.236Z,15.38
2022-09-16T14:12:03.866Z,15.27
2022-09-16T14:14:49.846Z,15.27
2022-09-16T14:17:21.721Z,15.27
2022-09-16T14:19:51.347Z,15.33
2022-09-16T14:22:23.047Z,15.28
2022-09-16T14:25:00.554Z,15.23
2022-09-16T14:27:39.362Z,15.26
2022-09-16T14:30:14.825Z,15.06
2022-09-16T14:32:42.810Z,14.88
2022-09-16T14:35:13.455Z,14.79
2022-09-16T14:37:46.419Z,14.72
2022-09-16T14:40:16.646Z,14.68
2022-09-16T14:42:49.825Z,14.74
2022-09-16T14:45:18.121Z,14.77
2022-09-16T14:47:51.639Z,14.82
2022-09-16T14:50:23.294Z,14.81
2022-09-16T14:52:57.631Z,14.67
2022-09-16T14:55:30.062Z,14.75
2022-09-16T14:57:58.222Z,14.76
2022-09-16T15:00:28.478Z,14.78
2022-09-16T15:03:01.024Z,14.83
2022-09-16T15:05:33.883Z,14.86
2022-09-16T15:08:14.937Z,14.89
2022-09-16T15:10:55.255Z,14.87
2022-09-16T15:13:27.783Z,14.83
2022-09-16T15:15:58.885Z,14.91
2022-09-16T15:18:29.554Z,15.01
2022-09-16T15:21:04.578Z,15.08
2022-09-16T15:23:34.588Z,15.01
2022-09-16T15:26:12.602Z,14.75
2022-09-16T15:28:52.279Z,14.84
2022-09-16T15:31:28.284Z,14.71
2022-09-16T15:33:58.085Z,14.67
2022-09-16T15:36:40.117Z,14.65
2022-09-16T15:39:24.385Z,14.71
2022-09-16T15:42:06.049Z,14.58
2022-09-16T15:44:37.321Z,14.44
2022-09-16T15:47:05.858Z,14.57
2022-09-16T15:49:39.293Z,14.52
2022-09-16T15:52:11.552Z,14.51
2022-09-16T15:54:49.735Z,14.45
2022-09-16T15:57:30.544Z,14.57
2022-09-16T16:00:10.886Z,14.62
2022-09-16T16:02:44.651Z,14.69
2022-09-16T16:05:15.260Z,14.77
2022-09-16T16:07:45.751Z,14.84
2022-09-16T16:10:20.346Z,14.79
2022-09-16T16:12:49.352Z,14.74
2022-09-16T16:15:18.580Z,14.60
2022-09-16T16:17:47.493Z,14.69
2022-09-16T16:20:16.966Z,14.69
2022-09-16T16:22:45.350Z,14.60
2022-09-16T16:25:14.079Z,14.61
2022-09-16T16:27:43.009Z,14.68
2022-09-16T16:30:11.972Z,14.76
2022-09-16T16:32:40.005Z,14.63
2022-09-16T16:35:08.517Z,14.43
2022-09-16T16:37:51.970Z,14.36
2022-09-16T16:40:19.846Z,14.23
2022-09-16T16:42:48.896Z,14.30
2022-09-16T16:45:16.823Z,14.30
2022-09-16T16:47:46.268Z,14.32
2022-09-16T16:50:14.698Z,14.39
2022-09-16T16:52:42.416Z,14.34
2022-09-16T16:55:10.791Z,14.29
2022-09-16T16:57:38.496Z,14.31
2022-09-16T17:00:08.820Z,14.44
2022-09-16T17:02:36.634Z,14.45
2022-09-16T17:05:04.398Z,14.41
2022-09-16T17:07:31.997Z,14.52
2022-09-16T17:09:59.649Z,14.49
2022-09-16T17:12:27.917Z,14.54
2022-09-16T17:14:55.563Z,14.49
2022-09-16T17:17:29.114Z,14.55
2022-09-16T17:19:59.122Z,14.68
2022-09-16T17:22:26.753Z,14.51
2022-09-16T17:24:54.471Z,14.40
2022-09-16T17:27:24.820Z,14.46
2022-09-16T17:29:52.495Z,14.45
2022-09-16T17:32:20.535Z,14.46
2022-09-16T17:34:49.524Z,14.58
2022-09-16T17:37:19.928Z,14.54
2022-09-16T17:39:48.576Z,14.50
2022-09-16T17:42:16.236Z,14.56
2022-09-16T17:44:43.976Z,14.56
2022-09-16T17:47:11.919Z,14.40
2022-09-16T17:49:39.503Z,14.45
2022-09-16T17:52:08.850Z,14.37
2022-09-16T17:54:36.600Z,14.27
2022-09-16T17:57:04.270Z,14.32
2022-09-16T17:59:32.065Z,14.35
2022-09-16T18:02:00.094Z,14.33
2022-09-16T18:04:27.668Z,14.39
2022-09-16T18:06:55.321Z,14.45
2022-09-16T18:09:24.399Z,14.38
2022-09-16T18:11:52.133Z,14.42
2022-09-16T18:14:23.248Z,14.49
2022-09-16T18:16:51.458Z,14.59
2022-09-16T18:19:19.165Z,14.58
2022-09-16T18:21:47.037Z,14.30
2022-09-16T18:24:15.856Z,14.22
2022-09-16T18:26:45.225Z,14.27
2022-09-16T18:29:14.233Z,14.34
2022-09-16T18:31:43.826Z,14.46
2022-09-16T18:34:12.372Z,14.50
2022-09-16T18:36:40.360Z,14.46
2022-09-16T18:39:11.647Z,14.46
2022-09-16T18:41:41.352Z,14.46
2022-09-16T18:44:13.873Z,14.53
2022-09-16T18:46:41.735Z,14.54
2022-09-16T18:49:12.513Z,14.48
2022-09-16T18:51:41.786Z,14.46
2022-09-16T18:54:13.227Z,14.50
2022-09-16T18:56:42.360Z,14.34
2022-09-16T18:59:21.511Z,14.32
2022-09-16T19:01:52.011Z,14.22
2022-09-16T19:04:21.748Z,14.30
2022-09-16T19:06:51.877Z,14.42
2022-09-16T19:09:22.573Z,14.26
2022-09-16T19:11:52.352Z,14.20
2022-09-16T19:14:24.294Z,14.22
2022-09-16T19:16:52.120Z,14.26
2022-09-16T19:19:20.505Z,14.21
2022-09-16T19:21:48.577Z,14.22
2022-09-16T19:24:18.480Z,14.21
2022-09-16T19:26:48.030Z,14.32
2022-09-16T19:29:16.952Z,14.34
2022-09-16T19:31:47.711Z,14.37
2022-09-16T19:34:16.914Z,14.34
2022-09-16T19:36:45.112Z,14.28
2022-09-16T19:39:14.508Z,14.36
2022-09-16T19:41:42.930Z,14.41
2022-09-16T19:44:13.900Z,14.46
2022-09-16T19:46:42.714Z,14.42
2022-09-16T19:49:17.682Z,14.39
2022-09-16T19:51:45.433Z,14.25
2022-09-16T19:54:13.559Z,14.24
2022-09-16T19:56:41.182Z,14.21
2022-09-16T19:59:09.400Z,14.24
2022-09-16T20:01:38.349Z,14.24
2022-09-16T20:04:08.505Z,14.31
2022-09-16T20:06:39.310Z,14.27
2022-09-16T20:09:09.084Z,14.19
2022-09-16T20:11:41.652Z,14.22
2022-09-16T20:14:13.547Z,14.28
2022-09-16T20:16:41.381Z,14.20
2022-09-16T20:19:12.092Z,14.26
2022-09-16T20:21:41.336Z,14.24
2022-09-16T20:24:14.672Z,14.30
2022-09-16T20:26:42.334Z,14.31
2022-09-16T20:29:09.944Z,14.33
2022-09-16T20:31:38.295Z,14.31
2022-09-16T20:34:06.895Z,14.34
2022-09-16T20:36:38.865Z,14.34
2022-09-16T20:39:10.423Z,14.29
2022-09-16T20:41:39.673Z,14.18
2022-09-16T20:44:07.696Z,14.16
2022-09-16T20:46:36.965Z,13.93
2022-09-16T20:49:09.350Z,13.99
2022-09-16T20:51:37.668Z,13.93
2022-09-16T20:54:09.250Z,13.97
2022-09-16T20:56:40.588Z,13.98
2022-09-16T20:59:09.779Z,14.03
2022-09-16T21:01:38.925Z,13.99
2022-09-16T21:04:08.530Z,14.01
2022-09-16T21:06:37.292Z,13.98
2022-09-16T21:09:10.183Z,13.88
2022-09-16T21:11:40.752Z,13.85
2022-09-16T21:14:08.558Z,13.87
2022-09-16T21:16:38.077Z,13.96
2022-09-16T21:19:09.242Z,13.87
2022-09-16T21:21:38.243Z,13.75
2022-09-16T21:24:08.614Z,13.63
2022-09-16T21:26:38.463Z,13.66
2022-09-16T21:29:09.777Z,13.76
2022-09-16T21:31:39.164Z,13.78
2022-09-16T21:34:07.986Z,13.77
2022-09-16T21:36:37.627Z,13.83
2022-09-16T21:39:05.283Z,13.89
2022-09-16T21:41:34.610Z,13.86
2022-09-16T21:44:03.830Z,13.79
2022-09-16T21:46:33.661Z,13.55
2022-09-16T21:49:03.158Z,13.55
2022-09-16T21:51:35.113Z,13.51
2022-09-16T21:54:03.531Z,13.57
2022-09-16T21:56:32.040Z,13.68
2022-09-16T21:59:01.182Z,13.56
2022-09-16T22:01:33.566Z,13.47
2022-09-16T22:04:03.393Z,13.48
2022-09-16T22:06:31.515Z,13.43
2022-09-16T22:09:01.610Z,13.50
2022-09-16T22:11:31.313Z,13.50
2022-09-16T22:14:01.481Z,13.48
2022-09-16T22:16:31.128Z,13.29
2022-09-16T22:19:00.606Z,13.34
2022-09-16T22:21:31.204Z,13.42
2022-09-16T22:24:02.918Z,13.38
2022-09-16T22:26:31.749Z,13.37
2022-09-16T22:29:01.079Z,13.32
2022-09-16T22:31:30.452Z,13.23
2022-09-16T22:34:00.409Z,13.21
2022-09-16T22:36:31.003Z,13.26
2022-09-16T22:39:01.755Z,13.22
2022-09-16T22:41:30.453Z,13.25
2022-09-16T22:43:58.190Z,13.31
2022-09-16T22:46:29.346Z,13.15
2022-09-16T22:48:58.471Z,13.26
2022-09-16T22:51:27.019Z,13.40
2022-09-16T22:53:55.607Z,13.41
2022-09-16T22:56:25.876Z,13.41
2022-09-16T22:58:54.848Z,13.43
2022-09-16T23:01:24.790Z,13.46
2022-09-16T23:03:56.354Z,13.47
2022-09-16T23:06:25.311Z,13.38
2022-09-16T23:08:53.679Z,13.34
2022-09-16T23:11:25.855Z,13.27
2022-09-16T23:13:54.119Z,13.05
2022-09-16T23:16:23.982Z,13.12
2022-09-16T23:18:51.743Z,13.14
2022-09-16T23:21:23.219Z,13.25
2022-09-16T23:23:52.540Z,13.31
2022-09-16T23:26:22.181Z,13.38
2022-09-16T23:28:53.087Z,13.38
2022-09-16T23:31:22.513Z,13.42
2022-09-16T23:33:50.369Z,13.43
2022-09-16T23:36:20.277Z,13.46
2022-09-16T23:38:48.239Z,13.48
2022-09-16T23:41:18.386Z,13.49
2022-09-16T23:43:46.658Z,13.51
2022-09-16T23:46:16.207Z,13.45
2022-09-16T23:48:45.205Z,13.36
2022-09-16T23:51:13.962Z,13.32
2022-09-16T23:53:43.187Z,13.29
2022-09-16T23:56:13.437Z,13.34
2022-09-16T23:58:42.207Z,13.32
